createdAt,value
2018-02-22T00:00:09.411Z,0
2018-02-22T00:01:19.120Z,0
2018-02-22T00:02:28.567Z,0
2018-02-22T00:03:38.520Z,0
2018-02-22T00:04:47.963Z,0
2018-02-22T00:05:57.931Z,0
2018-02-22T00:07:07.900Z,0
2018-02-22T00:08:17.862Z,0
2018-02-22T00:09:27.817Z,0
2018-02-22T00:10:37.773Z,0
2018-02-22T00:11:46.691Z,0
2018-02-22T00:12:56.664Z,0
2018-02-22T00:14:06.618Z,0
2018-02-22T00:15:16.829Z,0
2018-02-22T00:16:26.810Z,0
2018-02-22T00:17:36.004Z,0
2018-02-22T00:18:45.718Z,0
2018-02-22T00:19:55.694Z,0
2018-02-22T00:21:05.382Z,0
2018-02-22T00:22:15.343Z,0
2018-02-22T00:23:25.029Z,0
2018-02-22T00:24:34.993Z,0
2018-02-22T00:25:44.447Z,0
2018-02-22T00:26:53.871Z,0
2018-02-22T00:28:03.835Z,0
2018-02-22T00:29:13.326Z,0
2018-02-22T00:30:23.027Z,0
2018-02-22T00:31:32.729Z,0
2018-02-22T00:32:42.162Z,0
2018-02-22T00:33:51.610Z,0
2018-02-22T00:35:01.309Z,0
2018-02-22T00:36:10.487Z,0
2018-02-22T00:37:20.452Z,0
2018-02-22T00:38:30.409Z,0
2018-02-22T00:39:40.114Z,0
2018-02-22T00:40:50.113Z,0
2018-02-22T00:41:59.829Z,0
2018-02-22T00:43:09.783Z,0
2018-02-22T00:44:19.744Z,0
2018-02-22T00:45:29.697Z,0
2018-02-22T00:46:39.409Z,0
2018-02-22T00:47:49.351Z,0
2018-02-22T00:48:59.054Z,0
2018-02-22T00:50:09.005Z,0
2018-02-22T00:51:18.436Z,0
2018-02-22T00:52:27.872Z,0
2018-02-22T00:53:37.825Z,0
2018-02-22T00:54:47.802Z,0
2018-02-22T00:55:57.499Z,0
2018-02-22T00:57:07.207Z,0
2018-02-22T00:58:16.912Z,0
2018-02-22T00:59:26.682Z,0
2018-02-22T01:00:36.637Z,0
2018-02-22T01:01:46.595Z,0
2018-02-22T01:02:56.024Z,0
2018-02-22T01:04:05.718Z,0
2018-02-22T01:05:15.434Z,0
2018-02-22T01:06:25.134Z,0
2018-02-22T01:07:34.770Z,0
2018-02-22T01:08:44.717Z,0
2018-02-22T01:09:54.674Z,0
2018-02-22T01:11:04.633Z,0
2018-02-22T01:12:14.064Z,0
2018-02-22T01:13:24.018Z,0
2018-02-22T01:14:33.976Z,0
2018-02-22T01:15:43.162Z,0
2018-02-22T01:16:52.858Z,0
2018-02-22T01:18:02.558Z,0
2018-02-22T01:19:12.269Z,0
2018-02-22T01:20:22.235Z,0
2018-02-22T01:21:32.193Z,0
2018-02-22T01:22:41.888Z,0
2018-02-22T01:23:51.580Z,0
2018-02-22T01:25:01.596Z,0
2018-02-22T01:26:11.032Z,0
2018-02-22T01:27:20.984Z,0
2018-02-22T01:28:30.936Z,0
2018-02-22T01:29:40.901Z,0
2018-02-22T01:30:50.861Z,0
2018-02-22T01:32:00.805Z,0
2018-02-22T01:33:10.506Z,0
2018-02-22T01:34:20.460Z,0
2018-02-22T01:35:30.154Z,0
2018-02-22T01:36:40.106Z,0
2018-02-22T01:37:49.804Z,0
2018-02-22T01:38:59.515Z,0
2018-02-22T01:40:09.512Z,0
2018-02-22T01:41:19.220Z,0
2018-02-22T01:42:29.175Z,0
2018-02-22T01:43:38.882Z,0
2018-02-22T01:44:48.837Z,0
2018-02-22T01:45:58.278Z,0
2018-02-22T01:47:07.711Z,0
2018-02-22T01:48:17.411Z,0
2018-02-22T01:49:27.378Z,0
2018-02-22T01:50:37.325Z,0
2018-02-22T01:51:47.298Z,0
2018-02-22T01:52:56.730Z,0
2018-02-22T01:54:06.685Z,0
2018-02-22T01:55:16.652Z,0
2018-02-22T01:56:26.354Z,0
2018-02-22T01:57:36.065Z,0
2018-02-22T01:58:45.804Z,0
2018-02-22T01:59:55.266Z,0
2018-02-22T02:01:05.230Z,0
2018-02-22T02:02:15.201Z,0
2018-02-22T02:03:25.155Z,0
2018-02-22T02:04:34.852Z,0
2018-02-22T02:05:44.799Z,0
2018-02-22T02:06:54.502Z,0
2018-02-22T02:08:04.193Z,0
2018-02-22T02:09:13.876Z,0
2018-02-22T02:10:23.828Z,0
2018-02-22T02:11:33.773Z,0
2018-02-22T02:12:42.958Z,0
2018-02-22T02:13:52.658Z,0
2018-02-22T02:15:02.620Z,0
2018-02-22T02:16:12.308Z,0
2018-02-22T02:17:22.266Z,0
2018-02-22T02:18:32.217Z,0
2018-02-22T02:19:41.913Z,0
2018-02-22T02:20:51.881Z,0
2018-02-22T02:22:01.840Z,0
2018-02-22T02:23:11.797Z,0
2018-02-22T02:24:21.760Z,0
2018-02-22T02:25:31.724Z,0
2018-02-22T02:26:41.408Z,0
2018-02-22T02:27:51.358Z,0
2018-02-22T02:29:01.328Z,0
2018-02-22T02:30:11.283Z,0
2018-02-22T02:31:20.986Z,0
2018-02-22T02:32:30.434Z,0
2018-02-22T02:33:40.142Z,0
2018-02-22T02:34:49.863Z,0
2018-02-22T02:35:59.570Z,0
2018-02-22T02:37:09.274Z,0
2018-02-22T02:38:18.709Z,0
2018-02-22T02:39:28.705Z,0
2018-02-22T02:40:38.966Z,0
2018-02-22T02:41:48.400Z,0
2018-02-22T02:42:58.113Z,0
2018-02-22T02:44:07.822Z,0
2018-02-22T02:45:17.780Z,0
2018-02-22T02:46:27.499Z,0
2018-02-22T02:47:37.476Z,0
2018-02-22T02:48:47.191Z,0
2018-02-22T02:49:57.158Z,0
2018-02-22T02:51:06.914Z,0
2018-02-22T02:52:16.881Z,0
2018-02-22T02:53:26.584Z,0
2018-02-22T02:54:36.051Z,0
2018-02-22T02:55:46.013Z,0
2018-02-22T02:56:55.711Z,0
2018-02-22T02:58:05.159Z,0
2018-02-22T02:59:14.596Z,0
2018-02-22T03:00:24.305Z,0
2018-02-22T03:01:34.275Z,0
2018-02-22T03:02:43.741Z,0
2018-02-22T03:03:53.703Z,0
2018-02-22T03:05:03.420Z,0
2018-02-22T03:06:12.857Z,0
2018-02-22T03:07:22.811Z,0
2018-02-22T03:08:32.765Z,0
2018-02-22T03:09:42.719Z,0
2018-02-22T03:10:52.411Z,0
2018-02-22T03:12:02.102Z,0
2018-02-22T03:13:12.058Z,0
2018-02-22T03:14:21.492Z,0
2018-02-22T03:15:31.455Z,0
2018-02-22T03:16:41.154Z,0
2018-02-22T03:17:50.846Z,0
2018-02-22T03:19:00.796Z,0
2018-02-22T03:20:10.746Z,0
2018-02-22T03:21:20.715Z,0
2018-02-22T03:22:30.931Z,0
2018-02-22T03:23:40.363Z,0
2018-02-22T03:24:50.313Z,0
2018-02-22T03:26:00.003Z,0
2018-02-22T03:27:09.963Z,0
2018-02-22T03:28:19.654Z,0
2018-02-22T03:29:29.651Z,0
2018-02-22T03:30:39.606Z,0
2018-02-22T03:31:49.365Z,0
2018-02-22T03:32:59.064Z,0
2018-02-22T03:34:08.764Z,0
2018-02-22T03:35:18.456Z,0
2018-02-22T03:36:28.401Z,0
2018-02-22T03:37:38.358Z,0
2018-02-22T03:38:47.811Z,0
2018-02-22T03:39:56.992Z,0
2018-02-22T03:41:06.944Z,0
2018-02-22T03:42:16.373Z,0
2018-02-22T03:43:26.067Z,0
2018-02-22T03:44:36.027Z,0
2018-02-22T03:45:45.466Z,0
2018-02-22T03:46:54.899Z,0
2018-02-22T03:48:04.868Z,0
2018-02-22T03:49:14.822Z,0
2018-02-22T03:50:24.564Z,0
2018-02-22T03:51:34.516Z,0
2018-02-22T03:52:44.213Z,0
2018-02-22T03:53:53.903Z,0
2018-02-22T03:55:03.613Z,0
2018-02-22T03:56:13.567Z,0
2018-02-22T03:57:23.522Z,0
2018-02-22T03:58:33.483Z,0
2018-02-22T03:59:43.187Z,0
2018-02-22T04:00:52.623Z,0
2018-02-22T04:02:02.063Z,0
2018-02-22T04:03:11.762Z,0
2018-02-22T04:04:21.456Z,0
2018-02-22T04:05:31.164Z,0
2018-02-22T04:06:41.130Z,0
2018-02-22T04:07:50.828Z,0
2018-02-22T04:09:00.524Z,0
2018-02-22T04:10:10.229Z,0
2018-02-22T04:11:19.920Z,0
2018-02-22T04:12:29.868Z,0
2018-02-22T04:13:39.832Z,0
2018-02-22T04:14:49.782Z,0
2018-02-22T04:15:59.472Z,0
2018-02-22T04:17:09.424Z,0
2018-02-22T04:18:18.945Z,0
2018-02-22T04:19:28.912Z,0
2018-02-22T04:20:38.361Z,0
2018-02-22T04:21:48.063Z,0
2018-02-22T04:22:58.019Z,0
2018-02-22T04:24:07.993Z,0
2018-02-22T04:25:17.430Z,0
2018-02-22T04:26:27.384Z,0
2018-02-22T04:27:37.347Z,0
2018-02-22T04:28:47.298Z,0
2018-02-22T04:29:57.001Z,0
2018-02-22T04:31:06.691Z,0
2018-02-22T04:32:16.389Z,0
2018-02-22T04:33:26.084Z,0
2018-02-22T04:34:35.525Z,0
2018-02-22T04:35:45.224Z,0
2018-02-22T04:36:54.927Z,0
2018-02-22T04:38:04.899Z,0
2018-02-22T04:39:14.602Z,0
2018-02-22T04:40:24.045Z,0
2018-02-22T04:41:33.735Z,0
2018-02-22T04:42:43.459Z,0
2018-02-22T04:43:53.155Z,0
2018-02-22T04:45:02.596Z,0
2018-02-22T04:46:12.041Z,0
2018-02-22T04:47:21.744Z,0
2018-02-22T04:48:31.704Z,0
2018-02-22T04:49:41.659Z,0
2018-02-22T04:50:51.611Z,0
2018-02-22T04:52:01.568Z,0
2018-02-22T04:53:11.524Z,0
2018-02-22T04:54:21.481Z,0
2018-02-22T04:55:31.182Z,0
2018-02-22T04:56:41.139Z,0
2018-02-22T04:57:51.086Z,0
2018-02-22T04:59:01.066Z,0
2018-02-22T05:00:11.023Z,0
2018-02-22T05:01:20.710Z,0
2018-02-22T05:02:30.157Z,0
2018-02-22T05:03:40.106Z,0
2018-02-22T05:04:49.799Z,0
2018-02-22T05:05:59.485Z,0
2018-02-22T05:07:09.431Z,0
2018-02-22T05:08:18.869Z,0
2018-02-22T05:09:28.557Z,0
2018-02-22T05:10:38.252Z,0
2018-02-22T05:11:47.940Z,0
2018-02-22T05:12:57.130Z,0
2018-02-22T05:14:07.139Z,0
2018-02-22T05:15:17.118Z,0
2018-02-22T05:16:27.080Z,0
2018-02-22T05:17:37.036Z,0
2018-02-22T05:18:46.991Z,0
2018-02-22T05:19:56.953Z,0
2018-02-22T05:21:06.661Z,0
2018-02-22T05:22:16.095Z,0
2018-02-22T05:23:25.793Z,0
2018-02-22T05:24:35.226Z,0
2018-02-22T05:25:45.194Z,0
2018-02-22T05:26:54.892Z,0
2018-02-22T05:28:04.332Z,0
2018-02-22T05:29:13.769Z,0
2018-02-22T05:30:23.212Z,0
2018-02-22T05:31:32.928Z,0
2018-02-22T05:32:42.886Z,4
2018-02-22T05:33:52.880Z,4
2018-02-22T05:35:02.070Z,0
2018-02-22T05:36:11.507Z,4
2018-02-22T05:37:21.458Z,0
2018-02-22T05:38:31.418Z,4
2018-02-22T05:39:41.119Z,4
2018-02-22T05:40:50.562Z,8
2018-02-22T05:42:00.270Z,8
2018-02-22T05:43:10.235Z,12
2018-02-22T05:44:19.930Z,16
2018-02-22T05:45:29.890Z,20
2018-02-22T05:46:39.847Z,20
2018-02-22T05:47:49.549Z,28
2018-02-22T05:48:59.247Z,32
2018-02-22T05:50:08.968Z,40
2018-02-22T05:51:18.918Z,48
2018-02-22T05:52:28.615Z,60
2018-02-22T05:53:38.308Z,72
2018-02-22T05:54:48.272Z,88
2018-02-22T05:55:57.715Z,100
2018-02-22T05:57:07.427Z,120
2018-02-22T05:58:17.125Z,144
2018-02-22T05:59:26.803Z,168
2018-02-22T06:00:36.504Z,200
2018-02-22T06:01:45.940Z,228
2018-02-22T06:02:55.627Z,268
2018-02-22T06:04:05.076Z,308
2018-02-22T06:05:14.529Z,348
2018-02-22T06:06:24.231Z,396
2018-02-22T06:07:33.925Z,444
2018-02-22T06:08:43.644Z,500
2018-02-22T06:09:53.341Z,556
2018-02-22T06:11:03.023Z,616
2018-02-22T06:12:13.000Z,684
2018-02-22T06:13:22.952Z,752
2018-02-22T06:14:32.921Z,824
2018-02-22T06:15:42.884Z,900
2018-02-22T06:16:52.336Z,976
2018-02-22T06:18:01.768Z,1060
2018-02-22T06:19:11.726Z,1144
2018-02-22T06:20:21.166Z,1232
2018-02-22T06:21:31.141Z,1320
2018-02-22T06:22:40.858Z,1412
2018-02-22T06:23:51.059Z,1508
2018-02-22T06:25:00.762Z,1600
2018-02-22T06:26:10.461Z,1692
2018-02-22T06:27:20.161Z,1784
2018-02-22T06:28:29.859Z,1884
2018-02-22T06:29:39.810Z,1984
2018-02-22T06:30:49.801Z,2080
2018-02-22T06:31:59.759Z,2184
2018-02-22T06:33:09.728Z,2280
2018-02-22T06:34:19.192Z,2376
2018-02-22T06:35:29.145Z,2488
2018-02-22T06:36:38.865Z,2584
2018-02-22T06:37:48.042Z,2676
2018-02-22T06:38:58.000Z,2784
2018-02-22T06:40:07.464Z,2872
2018-02-22T06:41:17.163Z,2984
2018-02-22T06:42:26.886Z,3072
2018-02-22T06:43:36.606Z,3156
2018-02-22T06:44:45.844Z,3260
2018-02-22T06:45:55.578Z,3348
2018-02-22T06:47:05.537Z,3444
2018-02-22T06:48:15.488Z,3528
2018-02-22T06:49:25.431Z,3612
2018-02-22T06:50:34.860Z,3688
2018-02-22T06:51:44.558Z,3784
2018-02-22T06:52:54.004Z,3900
2018-02-22T06:54:03.720Z,3972
2018-02-22T06:55:13.463Z,4076
2018-02-22T06:56:23.427Z,4132
2018-02-22T06:57:33.126Z,4236
2018-02-22T06:58:42.569Z,4320
2018-02-22T06:59:51.996Z,4404
2018-02-22T07:01:01.703Z,4528
2018-02-22T07:02:11.407Z,4548
2018-02-22T07:03:21.380Z,4680
2018-02-22T07:04:31.328Z,4728
2018-02-22T07:05:41.050Z,4844
2018-02-22T07:06:50.490Z,5072
2018-02-22T07:08:00.200Z,4948
2018-02-22T07:09:10.188Z,5064
2018-02-22T07:10:20.185Z,5140
2018-02-22T07:11:30.165Z,5312
2018-02-22T07:12:40.124Z,5264
2018-02-22T07:13:49.825Z,5340
2018-02-22T07:14:59.852Z,5452
2018-02-22T07:16:09.812Z,5520
2018-02-22T07:17:19.767Z,5620
2018-02-22T07:18:29.715Z,5664
2018-02-22T07:19:39.162Z,5736
2018-02-22T07:20:48.892Z,5884
2018-02-22T07:21:58.590Z,5932
2018-02-22T07:23:19.510Z,6028
2018-02-22T07:24:29.228Z,6012
2018-02-22T07:25:39.192Z,6120
2018-02-22T07:26:48.362Z,6204
2018-02-22T07:27:58.357Z,6268
2018-02-22T07:29:08.315Z,6376
2018-02-22T07:30:17.761Z,6424
2018-02-22T07:31:27.476Z,6608
2018-02-22T07:32:37.433Z,6712
2018-02-22T07:33:46.620Z,6744
2018-02-22T07:34:56.315Z,6916
2018-02-22T07:36:06.018Z,6844
2018-02-22T07:37:15.718Z,7100
2018-02-22T07:38:25.161Z,7096
2018-02-22T07:39:34.880Z,7160
2018-02-22T07:40:44.889Z,7288
2018-02-22T07:41:54.594Z,7224
2018-02-22T07:43:04.560Z,7364
2018-02-22T07:44:14.259Z,7432
2018-02-22T07:45:23.960Z,7812
2018-02-22T07:46:33.935Z,7800
2018-02-22T07:47:43.896Z,7652
2018-02-22T07:48:53.868Z,7740
2018-02-22T07:50:03.845Z,7872
2018-02-22T07:51:13.833Z,8120
2018-02-22T07:52:23.325Z,7996
2018-02-22T07:53:33.279Z,8012
2018-02-22T07:54:42.734Z,8116
2018-02-22T07:55:52.991Z,8284
2018-02-22T07:57:02.725Z,8484
2018-02-22T07:58:12.444Z,8800
2018-02-22T07:59:21.901Z,8376
2018-02-22T08:00:31.616Z,8468
2018-02-22T08:01:41.352Z,8644
2018-02-22T08:02:51.081Z,8664
2018-02-22T08:04:00.772Z,8884
2018-02-22T08:05:10.485Z,8752
2018-02-22T08:06:20.468Z,8948
2018-02-22T08:07:29.923Z,8992
2018-02-22T08:08:39.385Z,9044
2018-02-22T08:09:48.826Z,9248
2018-02-22T08:10:58.291Z,9076
2018-02-22T08:12:08.534Z,9408
2018-02-22T08:13:17.975Z,10156
2018-02-22T08:14:27.945Z,11800
2018-02-22T08:15:37.959Z,12388
2018-02-22T08:16:47.686Z,12436
2018-02-22T08:17:57.409Z,12620
2018-02-22T08:19:06.846Z,12548
2018-02-22T08:20:16.312Z,12596
2018-02-22T08:21:25.493Z,12948
2018-02-22T08:22:35.198Z,13028
2018-02-22T08:23:44.922Z,13256
2018-02-22T08:24:54.628Z,13348
2018-02-22T08:26:04.344Z,13572
2018-02-22T08:27:13.786Z,14060
2018-02-22T08:28:23.602Z,15104
2018-02-22T08:29:32.786Z,16424
2018-02-22T08:30:42.760Z,16128
2018-02-22T08:31:52.751Z,16896
2018-02-22T08:33:02.235Z,16424
2018-02-22T08:34:11.684Z,17120
2018-02-22T08:35:21.384Z,17280
2018-02-22T08:36:31.118Z,17024
2018-02-22T08:37:41.096Z,17440
2018-02-22T08:38:50.819Z,17632
2018-02-22T08:40:00.538Z,17664
2018-02-22T08:41:10.545Z,17920
2018-02-22T08:42:20.521Z,18016
2018-02-22T08:43:30.567Z,18688
2018-02-22T08:44:40.584Z,18720
2018-02-22T08:45:50.646Z,18912
2018-02-22T08:47:00.617Z,19360
2018-02-22T08:48:10.056Z,19840
2018-02-22T08:49:19.762Z,19968
2018-02-22T08:50:29.487Z,20512
2018-02-22T08:51:39.199Z,21344
2018-02-22T08:52:49.438Z,21056
2018-02-22T08:53:59.415Z,21344
2018-02-22T08:55:08.895Z,21056
2018-02-22T08:56:18.090Z,21312
2018-02-22T08:57:27.798Z,21920
2018-02-22T08:58:37.742Z,22048
2018-02-22T08:59:47.812Z,22240
2018-02-22T09:00:57.830Z,22560
2018-02-22T09:02:07.588Z,22880
2018-02-22T09:03:17.763Z,23200
2018-02-22T09:04:27.498Z,23872
2018-02-22T09:05:37.234Z,23936
2018-02-22T09:06:47.214Z,24512
2018-02-22T09:07:56.921Z,24544
2018-02-22T09:09:06.647Z,24224
2018-02-22T09:10:16.591Z,24576
2018-02-22T09:11:26.315Z,25056
2018-02-22T09:12:36.308Z,23744
2018-02-22T09:13:46.029Z,25632
2018-02-22T09:14:56.024Z,26400
2018-02-22T09:16:05.247Z,26784
2018-02-22T09:17:15.006Z,27168
2018-02-22T09:18:24.725Z,28672
2018-02-22T09:19:34.774Z,29568
2018-02-22T09:20:43.989Z,30176
2018-02-22T09:21:53.754Z,31008
2018-02-22T09:23:03.257Z,31520
2018-02-22T09:24:12.481Z,33504
2018-02-22T09:25:22.191Z,35200
2018-02-22T09:26:31.651Z,37536
2018-02-22T09:27:41.832Z,41632
2018-02-22T09:28:51.288Z,45088
2018-02-22T09:30:01.004Z,48640
2018-02-22T09:31:10.683Z,51712
2018-02-22T09:32:20.146Z,50848
2018-02-22T09:33:30.125Z,50720
2018-02-22T09:34:39.578Z,51840
2018-02-22T09:35:49.546Z,52544
2018-02-22T09:36:59.330Z,54432
2018-02-22T09:38:08.789Z,56192
2018-02-22T09:39:18.248Z,57824
2018-02-22T09:40:28.249Z,56608
2018-02-22T09:41:38.224Z,57248
2018-02-22T09:42:47.946Z,56480
2018-02-22T09:43:57.667Z,57984
2018-02-22T09:45:07.142Z,58528
2018-02-22T09:46:16.880Z,58080
2018-02-22T09:47:26.877Z,59904
2018-02-22T09:48:36.899Z,59424
2018-02-22T09:49:46.387Z,61024
2018-02-22T09:50:56.116Z,59008
2018-02-22T09:52:06.106Z,59872
2018-02-22T09:53:15.574Z,61920
2018-02-22T09:54:25.545Z,62528
2018-02-22T09:55:35.038Z,61696
2018-02-22T09:56:45.040Z,62208
2018-02-22T09:57:54.840Z,63584
2018-02-22T09:59:04.350Z,64960
2018-02-22T10:00:14.348Z,66272
2018-02-22T10:01:23.844Z,66912
2018-02-22T10:02:33.851Z,67520
2018-02-22T10:03:43.096Z,70016
2018-02-22T10:04:52.806Z,66688
2018-02-22T10:06:02.530Z,65312
2018-02-22T10:07:12.243Z,68288
2018-02-22T10:08:22.304Z,68960
2018-02-22T10:09:31.764Z,68608
2018-02-22T10:10:41.244Z,70432
2018-02-22T10:11:50.739Z,70400
2018-02-22T10:13:00.229Z,69248
2018-02-22T10:14:10.209Z,71264
2018-02-22T10:15:19.675Z,76800
2018-02-22T10:16:29.659Z,77120
2018-02-22T10:17:39.366Z,74464
2018-02-22T10:18:48.824Z,54144
2018-02-22T10:19:58.793Z,40864
2018-02-22T10:21:08.761Z,44672
2018-02-22T10:22:18.740Z,59840
2018-02-22T10:23:28.207Z,67872
2018-02-22T10:24:37.675Z,53632
2018-02-22T10:25:47.673Z,72384
2018-02-22T10:26:57.652Z,67488
2018-02-22T10:28:07.659Z,88416
2018-02-22T10:29:17.378Z,86176
2018-02-22T10:30:27.365Z,78528
2018-02-22T10:31:37.336Z,68288
2018-02-22T10:32:47.322Z,81760
2018-02-22T10:33:57.318Z,85568
2018-02-22T10:35:07.298Z,68800
2018-02-22T10:36:16.758Z,67744
2018-02-22T10:37:26.218Z,79360
2018-02-22T10:38:35.671Z,83104
2018-02-22T10:39:45.144Z,56576
2018-02-22T10:40:55.149Z,57952
2018-02-22T10:42:05.150Z,76544
2018-02-22T10:43:15.164Z,87136
2018-02-22T10:44:24.902Z,56448
2018-02-22T10:45:34.622Z,54016
2018-02-22T10:46:44.595Z,46592
2018-02-22T10:47:54.581Z,86432
2018-02-22T10:49:04.318Z,87808
2018-02-22T10:50:14.067Z,75488
2018-02-22T10:51:24.119Z,89952
2018-02-22T10:52:34.117Z,90560
2018-02-22T10:53:43.585Z,60128
2018-02-22T10:54:53.442Z,61312
2018-02-22T10:56:02.916Z,76192
2018-02-22T10:57:13.044Z,58880
2018-02-22T10:58:23.044Z,62176
2018-02-22T10:59:32.783Z,74048
2018-02-22T11:00:42.770Z,74848
2018-02-22T11:01:52.547Z,89504
2018-02-22T11:03:02.014Z,71008
2018-02-22T11:04:12.027Z,108736
2018-02-22T11:05:21.740Z,96896
2018-02-22T11:06:31.491Z,70112
2018-02-22T11:07:41.479Z,96128
2018-02-22T11:08:51.228Z,48640
2018-02-22T11:10:01.227Z,37408
2018-02-22T11:11:11.212Z,27104
2018-02-22T11:12:21.198Z,29664
2018-02-22T11:13:30.940Z,95456
2018-02-22T11:14:41.154Z,95168
2018-02-22T11:15:50.607Z,81152
2018-02-22T11:17:00.064Z,103072
2018-02-22T11:18:09.810Z,101856
2018-02-22T11:19:19.806Z,109632
2018-02-22T11:20:29.783Z,107104
2018-02-22T11:21:39.272Z,104352
2018-02-22T11:22:48.722Z,99776
2018-02-22T11:23:58.468Z,98432
2018-02-22T11:25:08.462Z,70464
2018-02-22T11:26:17.680Z,32800
2018-02-22T11:27:27.398Z,34592
2018-02-22T11:28:37.360Z,102880
2018-02-22T11:29:47.361Z,96800
2018-02-22T11:30:57.331Z,36416
2018-02-22T11:32:06.809Z,41024
2018-02-22T11:33:16.810Z,77088
2018-02-22T11:34:26.568Z,90976
2018-02-22T11:35:36.295Z,85728
2018-02-22T11:36:46.276Z,89728
2018-02-22T11:37:56.002Z,56448
2018-02-22T11:39:06.016Z,40448
2018-02-22T11:40:16.023Z,40384
2018-02-22T11:41:25.991Z,37952
2018-02-22T11:42:35.980Z,41632
2018-02-22T11:43:45.975Z,45536
2018-02-22T11:44:55.704Z,47616
2018-02-22T11:46:05.680Z,48992
2018-02-22T11:47:15.145Z,48928
2018-02-22T11:48:24.604Z,47968
2018-02-22T11:49:34.348Z,49504
2018-02-22T11:50:44.061Z,42848
2018-02-22T11:51:53.890Z,42368
2018-02-22T11:53:03.641Z,43712
2018-02-22T11:54:13.376Z,46112
2018-02-22T11:55:22.575Z,48480
2018-02-22T11:56:32.057Z,49920
2018-02-22T11:57:41.251Z,50976
2018-02-22T11:58:50.465Z,58880
2018-02-22T12:00:00.188Z,62656
2018-02-22T12:01:09.913Z,57504
2018-02-22T12:02:19.641Z,56224
2018-02-22T12:03:29.624Z,55296
2018-02-22T12:04:39.349Z,61792
2018-02-22T12:05:49.058Z,58176
2018-02-22T12:06:57.989Z,52384
2018-02-22T12:08:07.972Z,47680
2018-02-22T12:09:17.780Z,45792
2018-02-22T12:10:27.293Z,42848
2018-02-22T12:11:37.321Z,39584
2018-02-22T12:12:47.052Z,36256
2018-02-22T12:13:57.029Z,36480
2018-02-22T12:15:06.747Z,44832
2018-02-22T12:16:16.745Z,76000
2018-02-22T12:17:26.725Z,109920
2018-02-22T12:18:36.702Z,106144
2018-02-22T12:19:46.677Z,97856
2018-02-22T12:20:56.668Z,67456
2018-02-22T12:22:06.633Z,52064
2018-02-22T12:23:16.370Z,41984
2018-02-22T12:24:26.360Z,38816
2018-02-22T12:25:36.345Z,48704
2018-02-22T12:26:46.047Z,27424
2018-02-22T12:27:55.781Z,23232
2018-02-22T12:29:05.792Z,20800
2018-02-22T12:30:15.787Z,19168
2018-02-22T12:31:25.342Z,18208
2018-02-22T12:32:35.315Z,17920
2018-02-22T12:33:45.031Z,17344
2018-02-22T12:34:54.749Z,16640
2018-02-22T12:36:04.200Z,15888
2018-02-22T12:37:14.173Z,15508
2018-02-22T12:38:23.894Z,15512
2018-02-22T12:39:33.868Z,16248
2018-02-22T12:40:43.589Z,17824
2018-02-22T12:41:53.829Z,19392
2018-02-22T12:43:03.276Z,20576
2018-02-22T12:44:12.734Z,21472
2018-02-22T12:45:22.456Z,22784
2018-02-22T12:46:31.660Z,24480
2018-02-22T12:47:41.657Z,27968
2018-02-22T12:48:51.114Z,33344
2018-02-22T12:50:00.572Z,40864
2018-02-22T12:51:10.285Z,48544
2018-02-22T12:52:20.312Z,73376
2018-02-22T12:53:30.279Z,49792
2018-02-22T12:54:39.998Z,99008
2018-02-22T12:55:49.459Z,101504
2018-02-22T12:56:59.211Z,97088
2018-02-22T12:58:08.922Z,111392
2018-02-22T12:59:18.639Z,105312
2018-02-22T13:00:28.344Z,83296
2018-02-22T13:01:38.310Z,82912
2018-02-22T13:02:48.298Z,32064
2018-02-22T13:03:58.029Z,39712
2018-02-22T13:05:07.762Z,84992
2018-02-22T13:06:17.489Z,50432
2018-02-22T13:07:27.399Z,30720
2018-02-22T13:08:36.860Z,30720
2018-02-22T13:09:46.574Z,32288
2018-02-22T13:10:56.542Z,31104
2018-02-22T13:12:06.514Z,29024
2018-02-22T13:13:16.239Z,27424
2018-02-22T13:14:25.748Z,25632
2018-02-22T13:15:35.210Z,24384
2018-02-22T13:16:45.188Z,23936
2018-02-22T13:17:55.232Z,24096
2018-02-22T13:19:04.971Z,24800
2018-02-22T13:20:15.164Z,25376
2018-02-22T13:21:25.205Z,25568
2018-02-22T13:22:34.727Z,26368
2018-02-22T13:23:44.462Z,34240
2018-02-22T13:24:54.440Z,49600
2018-02-22T13:26:03.889Z,64416
2018-02-22T13:27:13.856Z,33856
2018-02-22T13:28:23.313Z,33184
2018-02-22T13:29:33.305Z,39584
2018-02-22T13:30:43.294Z,53792
2018-02-22T13:31:53.280Z,44192
2018-02-22T13:33:03.008Z,57920
2018-02-22T13:34:12.983Z,85088
2018-02-22T13:35:22.192Z,54208
2018-02-22T13:36:31.914Z,53824
2018-02-22T13:37:41.622Z,75840
2018-02-22T13:38:51.337Z,56256
2018-02-22T13:40:01.057Z,46880
2018-02-22T13:41:10.519Z,48928
2018-02-22T13:42:20.241Z,52128
2018-02-22T13:43:30.237Z,37312
2018-02-22T13:44:40.212Z,35232
2018-02-22T13:45:49.405Z,71520
2018-02-22T13:46:59.115Z,55808
2018-02-22T13:48:09.102Z,67776
2018-02-22T13:49:18.833Z,69280
2018-02-22T13:50:28.572Z,56928
2018-02-22T13:51:38.036Z,35360
2018-02-22T13:52:47.766Z,31456
2018-02-22T13:53:57.268Z,27968
2018-02-22T13:55:06.973Z,27648
2018-02-22T13:56:16.690Z,30112
2018-02-22T13:57:26.418Z,33792
2018-02-22T13:58:36.406Z,44256
2018-02-22T13:59:46.121Z,40096
2018-02-22T14:00:56.097Z,96352
2018-02-22T14:02:06.069Z,99712
2018-02-22T14:03:15.787Z,96032
2018-02-22T14:04:25.762Z,82912
2018-02-22T14:05:35.476Z,40480
2018-02-22T14:06:45.441Z,52576
2018-02-22T14:07:55.443Z,33536
2018-02-22T14:09:05.408Z,31712
2018-02-22T14:10:14.869Z,32192
2018-02-22T14:11:24.601Z,55840
2018-02-22T14:12:34.329Z,30560
2018-02-22T14:13:43.786Z,26880
2018-02-22T14:14:53.747Z,26144
2018-02-22T14:16:03.463Z,25568
2018-02-22T14:17:13.300Z,25568
2018-02-22T14:18:23.399Z,25568
2018-02-22T14:19:32.892Z,24768
2018-02-22T14:20:42.900Z,23072
2018-02-22T14:21:52.615Z,20864
2018-02-22T14:23:02.327Z,18400
2018-02-22T14:24:11.780Z,16512
2018-02-22T14:25:20.986Z,14696
2018-02-22T14:26:30.964Z,13316
2018-02-22T14:27:40.953Z,12084
2018-02-22T14:28:50.987Z,10964
2018-02-22T14:30:01.049Z,9804
2018-02-22T14:31:10.809Z,9112
2018-02-22T14:32:20.767Z,8584
2018-02-22T14:33:30.477Z,8084
2018-02-22T14:34:40.431Z,7548
2018-02-22T14:35:50.406Z,7016
2018-02-22T14:36:59.871Z,6484
2018-02-22T14:38:09.053Z,5952
2018-02-22T14:39:19.019Z,5452
2018-02-22T14:40:28.982Z,4952
2018-02-22T14:41:38.731Z,4480
2018-02-22T14:42:48.712Z,4132
2018-02-22T14:43:58.689Z,3888
2018-02-22T14:45:08.139Z,3736
2018-02-22T14:46:18.115Z,3624
2018-02-22T14:47:28.090Z,3596
2018-02-22T14:48:37.537Z,3612
2018-02-22T14:49:47.500Z,3708
2018-02-22T14:50:57.255Z,3916
2018-02-22T14:52:06.720Z,4132
2018-02-22T14:53:16.446Z,4280
2018-02-22T14:54:25.897Z,4412
2018-02-22T14:55:35.618Z,4532
2018-02-22T14:56:44.549Z,4644
2018-02-22T14:57:54.519Z,4736
2018-02-22T14:59:04.258Z,4868
2018-02-22T15:00:13.965Z,4904
2018-02-22T15:01:23.782Z,4892
2018-02-22T15:02:33.060Z,4956
2018-02-22T15:03:42.245Z,5056
2018-02-22T15:04:52.225Z,5088
2018-02-22T15:06:01.930Z,5064
2018-02-22T15:07:11.898Z,5036
2018-02-22T15:08:21.605Z,4984
2018-02-22T15:09:31.318Z,4904
2018-02-22T15:10:41.285Z,4832
2018-02-22T15:11:51.006Z,4768
2018-02-22T15:13:00.988Z,4636
2018-02-22T15:14:10.948Z,4444
2018-02-22T15:15:20.668Z,4256
2018-02-22T15:16:30.363Z,4064
2018-02-22T15:17:40.348Z,3864
2018-02-22T15:18:50.319Z,3676
2018-02-22T15:20:00.294Z,3528
2018-02-22T15:21:10.299Z,3408
2018-02-22T15:22:20.007Z,3280
2018-02-22T15:23:29.727Z,3164
2018-02-22T15:24:39.698Z,3104
2018-02-22T15:25:49.391Z,3120
2018-02-22T15:26:59.360Z,3144
2018-02-22T15:28:09.335Z,3128
2018-02-22T15:29:19.310Z,3076
2018-02-22T15:30:29.037Z,3000
2018-02-22T15:31:38.774Z,2880
2018-02-22T15:32:48.761Z,2732
2018-02-22T15:33:58.466Z,2576
2018-02-22T15:35:08.438Z,2460
2018-02-22T15:36:17.885Z,2428
2018-02-22T15:37:27.326Z,2488
2018-02-22T15:38:37.332Z,2556
2018-02-22T15:39:47.309Z,2644
2018-02-22T15:40:57.011Z,2704
2018-02-22T15:42:07.237Z,2736
2018-02-22T15:43:16.677Z,2752
2018-02-22T15:44:26.664Z,2748
2018-02-22T15:45:36.584Z,2752
2018-02-22T15:46:45.778Z,2748
2018-02-22T15:47:55.757Z,2720
2018-02-22T15:49:05.715Z,2688
2018-02-22T15:50:15.684Z,2644
2018-02-22T15:51:25.677Z,2564